»·PEaware :: N15JG KSNA-KCRQ

N15JG :: KSNA-KCRQ

FLIGHT INFORMATION

Flight Status: Arrived
Operator: Privately registered:
United States
More flights under this callsign
Pilot: Anonymous 11047 (11047)
Aircraft: CESSNA 172 SKYHAWK
(C172)
More flights by this aircraft type
Origin: KSNA John Wayne-Orange Co
United States
Destination: KCRQ McClellan-Palomar
United States
More flights between these airports :: More routes between these airports
Route: V23 OCN
File this flight plan on PilotEdge
Remarks: I-2 Rating
Altitude:
(Current/Filed)
5,000ft
Speed:
(Current/Filed)
110kts
Departed: 03-Jan-17 01:16 PM
Arrived: 03-Jan-17 01:56 PM
Distance/Time
Traveled:
44nm/0:39
Distance/Time
To Go:
Arrived

Flight Plot

Page will automatically refresh every two minutes.


Map Options




Map Legend


Flown Route
Filed Route
Departure Airport
Arrival Airport
Navaid (VOR, NDB)
Fix

Horizontal Profiles

Position Reports

Time Latitude Longitude Heading Altitude Ground
Speed
03-Jan-17 13:04 33.675854 -117.871001 218 60ft 0kts
03-Jan-17 13:05 33.675854 -117.871001 218 60ft 0kts
03-Jan-17 13:06 33.675854 -117.871001 218 60ft 0kts
03-Jan-17 13:07 33.675854 -117.871001 218 60ft 0kts
03-Jan-17 13:08 33.675854 -117.871001 218 60ft 0kts
03-Jan-17 13:09 33.675854 -117.871001 218 60ft 0kts
03-Jan-17 13:10 33.675854 -117.871001 218 60ft 0kts
03-Jan-17 13:11 33.675854 -117.871001 218 60ft 0kts
03-Jan-17 13:12 33.676889 -117.869576 26 60ft 21kts
03-Jan-17 13:13 33.681265 -117.866509 112 60ft 2kts
03-Jan-17 13:14 33.681264 -117.866507 116 60ft 0kts
03-Jan-17 13:15 33.681235 -117.866436 116 60ft 4kts
03-Jan-17 13:16 33.671835 -117.871401 210 244ft 82kts
03-Jan-17 13:17 33.651985 -117.876791 187 1046ft 81kts
03-Jan-17 13:18 33.630751 -117.879262 186 1814ft 82kts
03-Jan-17 13:19 33.608621 -117.881658 185 2552ft 85kts
03-Jan-17 13:20 33.587737 -117.880604 188 3463ft 64kts
03-Jan-17 13:21 33.568540 -117.881695 204 4079ft 63kts
03-Jan-17 13:22 33.551150 -117.878447 138 4704ft 97kts
03-Jan-17 13:23 33.542838 -117.841293 115 4925ft 131kts
03-Jan-17 13:24 33.526980 -117.800748 133 4417ft 136kts
03-Jan-17 13:25 33.510714 -117.766222 136 4796ft 115kts
03-Jan-17 13:26 33.492686 -117.734049 134 4987ft 125kts
03-Jan-17 13:27 33.472319 -117.701452 143 5068ft 123kts
03-Jan-17 13:28 33.447233 -117.673581 157 4939ft 121kts
03-Jan-17 13:29 33.422204 -117.644877 138 4819ft 128kts
03-Jan-17 13:30 33.402761 -117.610368 142 4991ft 122kts
03-Jan-17 13:31 33.379932 -117.581790 153 5051ft 120kts
03-Jan-17 13:32 33.354297 -117.554531 152 4854ft 129kts
03-Jan-17 13:33 33.342582 -117.513360 102 4902ft 144kts
03-Jan-17 13:34 33.335357 -117.468256 115 5007ft 135kts
03-Jan-17 13:35 33.325268 -117.425452 116 5148ft 136kts
03-Jan-17 13:36 33.315789 -117.380437 117 5043ft 140kts
03-Jan-17 13:37 33.307275 -117.346369 102 5061ft 134kts
03-Jan-17 13:38 33.299171 -117.304915 103 5020ft 126kts
03-Jan-17 13:39 33.290814 -117.265729 102 5005ft 114kts
03-Jan-17 13:40 33.283426 -117.228278 100 5049ft 122kts
03-Jan-17 13:41 33.274165 -117.188837 97 5040ft 122kts
03-Jan-17 13:42 33.266374 -117.148908 101 5046ft 120kts
03-Jan-17 13:43 33.258049 -117.109703 103 5053ft 123kts
03-Jan-17 13:44 33.249858 -117.069708 103 5032ft 125kts
03-Jan-17 13:45 33.230746 -117.037428 144 4929ft 123kts
03-Jan-17 13:46 33.203765 -117.011915 142 4202ft 123kts
03-Jan-17 13:47 33.173170 -117.004790 221 3544ft 113kts
03-Jan-17 13:48 33.167193 -117.033759 255 3484ft 106kts
03-Jan-17 13:49 33.161460 -117.069807 265 3296ft 107kts
03-Jan-17 13:50 33.155585 -117.104147 264 3269ft 107kts
03-Jan-17 13:51 33.149872 -117.139665 258 3083ft 115kts
03-Jan-17 13:52 33.144658 -117.177980 257 2392ft 119kts
03-Jan-17 13:53 33.138629 -117.216352 257 1495ft 116kts
03-Jan-17 13:54 33.133914 -117.245715 258 667ft 73kts
03-Jan-17 13:55 33.130021 -117.269185 259 408ft 65kts
03-Jan-17 13:56 33.128150 -117.278973 159 309ft 4kts

Navigation Log

Ident Type
1. KSNA Airport
2. OCN Navaid
3. KCRQ Airport